Time;durP1;ratioP1;P1;durP2;ratioP2;P2;SDS_P1;SDS_P2;PMS_P1;PMS_P2;Temp;Humidity;BMP_temperature;BMP_pressure;BME280_temperature;BME280_humidity;BME280_pressure;Samples;Min_cycle;Max_cycle;Signal;HPM_P1;HPM_P2
2022/08/24 00:00:38;;;;;;;6.80;3.15;;;22.50;99.90;;;;;;2594134;22;20320;-73
2022/08/24 00:01:39;;;;;;;6.45;3.10;;;22.50;99.90;;;;;;2594348;22;20007;-73
2022/08/24 00:02:39;;;;;;;5.88;3.55;;;22.50;99.90;;;;;;2593510;22;20019;-73
2022/08/24 00:03:42;;;;;;;4.05;3.00;;;22.50;99.90;;;;;;2593510;22;20007;-73
2022/08/24 00:04:42;;;;;;;4.40;3.38;;;22.50;99.90;;;;;;2594458;22;19996;-73
2022/08/24 00:05:43;;;;;;;4.20;3.25;;;22.50;99.90;;;;;;2594190;22;20073;-73
2022/08/24 00:06:43;;;;;;;4.85;2.95;;;22.40;99.90;;;;;;2594341;22;20004;-73
2022/08/24 00:07:44;;;;;;;7.43;3.17;;;22.40;99.90;;;;;;2593631;22;20202;-73
2022/08/24 00:08:47;;;;;;;6.20;3.40;;;22.40;99.90;;;;;;2594559;22;20008;-73
2022/08/24 00:09:47;;;;;;;5.15;3.75;;;22.40;99.90;;;;;;2580395;23;20098;-73
2022/08/24 00:10:48;;;;;;;5.40;3.05;;;22.40;99.90;;;;;;2580994;23;20000;-73
2022/08/24 00:11:49;;;;;;;4.15;3.25;;;22.40;99.90;;;;;;2581058;23;20020;-73
2022/08/24 00:12:49;;;;;;;4.30;3.00;;;22.40;99.90;;;;;;2581027;23;20036;-73
2022/08/24 00:13:50;;;;;;;4.10;3.10;;;22.40;99.90;;;;;;2593976;22;20074;-73
2022/08/24 00:14:52;;;;;;;6.53;3.15;;;22.40;99.90;;;;;;2594241;22;20304;-73
2022/08/24 00:15:53;;;;;;;4.03;2.53;;;22.40;99.90;;;;;;2593904;22;20006;-73
2022/08/24 00:16:53;;;;;;;3.90;2.88;;;22.30;99.90;;;;;;2593584;22;20031;-73
2022/08/24 00:17:54;;;;;;;4.63;3.10;;;22.30;99.90;;;;;;2579938;23;20008;-73
2022/08/24 00:18:55;;;;;;;5.40;3.28;;;22.30;99.90;;;;;;2581231;23;20004;-73
2022/08/24 00:19:55;;;;;;;5.97;3.33;;;22.30;99.90;;;;;;2594803;22;20000;-73
2022/08/24 00:20:56;;;;;;;5.32;2.88;;;22.30;99.90;;;;;;2594404;22;20086;-73
2022/08/24 00:21:56;;;;;;;6.50;3.13;;;22.30;99.90;;;;;;2595220;22;20506;-73
2022/08/24 00:22:57;;;;;;;5.75;3.38;;;22.30;99.90;;;;;;2594858;22;20006;-74
2022/08/24 00:23:58;;;;;;;6.47;3.17;;;22.30;99.90;;;;;;2595149;22;20377;-73
2022/08/24 00:24:58;;;;;;;4.97;3.30;;;22.30;99.90;;;;;;2594906;22;20078;-73
2022/08/24 00:25:59;;;;;;;6.32;3.10;;;22.20;99.90;;;;;;2594860;22;20468;-73
2022/08/24 00:27:00;;;;;;;4.68;3.13;;;22.20;99.90;;;;;;2595071;22;20080;-73
2022/08/24 00:28:00;;;;;;;3.15;2.80;;;22.20;99.90;;;;;;2595446;22;20004;-73
2022/08/24 00:29:01;;;;;;;4.72;3.40;;;22.20;99.90;;;;;;2581457;23;20004;-73
2022/08/24 00:30:05;;;;;;;6.13;2.97;;;22.20;99.90;;;;;;2582042;23;19996;-73
2022/08/24 00:31:06;;;;;;;3.42;2.80;;;22.20;99.90;;;;;;2594681;22;19999;-73
2022/08/24 00:32:06;;;;;;;4.47;3.03;;;22.20;99.90;;;;;;2594916;22;20019;-73
2022/08/24 00:33:07;;;;;;;4.57;3.03;;;22.20;99.90;;;;;;2594613;22;20000;-73
2022/08/24 00:34:08;;;;;;;7.00;3.83;;;22.10;99.90;;;;;;2594058;22;20011;-73
2022/08/24 00:35:09;;;;;;;7.45;3.67;;;22.10;99.90;;;;;;2581275;23;20039;-73
2022/08/24 00:36:10;;;;;;;5.97;3.40;;;22.10;99.90;;;;;;2580996;22;20030;-73
2022/08/24 00:37:10;;;;;;;4.13;3.38;;;22.10;99.90;;;;;;2595121;22;20732;-73
2022/08/24 00:38:11;;;;;;;8.60;3.42;;;22.10;99.90;;;;;;2595197;22;20007;-73
2022/08/24 00:39:12;;;;;;;3.83;3.15;;;22.10;99.90;;;;;;2595056;22;20446;-73
2022/08/24 00:40:19;;;;;;;4.63;3.20;;;22.10;99.90;;;;;;2594431;22;20015;-73
2022/08/24 00:41:20;;;;;;;5.15;3.45;;;22.10;99.90;;;;;;2594938;22;20393;-73
2022/08/24 00:42:20;;;;;;;6.43;3.92;;;22.00;99.90;;;;;;2594178;22;20026;-73
2022/08/24 00:43:24;;;;;;;4.60;3.40;;;22.00;99.90;;;;;;2594843;22;20007;-73
2022/08/24 00:44:25;;;;;;;5.57;3.75;;;22.00;99.90;;;;;;2595362;22;20007;-73
2022/08/24 00:45:25;;;;;;;5.28;3.03;;;22.00;99.90;;;;;;2594774;22;20007;-73
2022/08/24 00:46:35;;;;;;;4.97;3.53;;;22.00;99.90;;;;;;2594447;22;20007;-73
2022/08/24 00:47:44;;;;;;;4.80;3.05;;;22.00;99.90;;;;;;2595147;22;20014;-73
2022/08/24 00:48:49;;;;;;;3.63;3.25;;;22.00;99.90;;;;;;2594472;22;20030;-73
2022/08/24 00:50:00;;;;;;;4.57;3.28;;;21.90;99.90;;;;;;2594771;22;20606;-73
2022/08/24 00:51:12;;;;;;;4.47;3.17;;;21.90;99.90;;;;;;2595092;22;20022;-73
2022/08/24 00:52:18;;;;;;;5.55;2.90;;;21.90;99.90;;;;;;2593820;22;20042;-73
2022/08/24 00:53:39;;;;;;;4.55;3.28;;;21.90;99.90;;;;;;2594732;22;20004;-73
2022/08/24 00:54:48;;;;;;;4.20;2.90;;;21.80;99.90;;;;;;2594625;22;20014;-73
2022/08/24 00:55:52;;;;;;;3.40;2.47;;;21.80;99.90;;;;;;2594310;22;20000;-73
2022/08/24 00:56:57;;;;;;;7.05;3.50;;;21.80;99.90;;;;;;2594392;22;20271;-73
2022/08/24 00:58:06;;;;;;;7.32;3.50;;;21.80;99.90;;;;;;2594895;22;20004;-73
2022/08/24 00:59:13;;;;;;;7.88;3.33;;;21.80;99.90;;;;;;2581893;23;20011;-73
2022/08/24 01:00:21;;;;;;;5.57;3.35;;;21.80;99.90;;;;;;2583253;22;20000;-73
2022/08/24 01:01:23;;;;;;;7.18;3.75;;;21.80;99.90;;;;;;2594771;22;20010;-73
2022/08/24 01:02:29;;;;;;;6.50;3.50;;;21.70;99.90;;;;;;2594445;22;20661;-73
2022/08/24 01:03:31;;;;;;;6.40;3.55;;;21.70;99.90;;;;;;2594360;22;20091;-73
2022/08/24 01:04:36;;;;;;;4.25;3.50;;;21.70;99.90;;;;;;2595125;22;20435;-73
2022/08/24 01:05:38;;;;;;;5.93;3.63;;;21.70;99.90;;;;;;2581375;23;20074;-73
2022/08/24 01:06:38;;;;;;;4.78;3.03;;;21.70;99.90;;;;;;2568557;23;20028;-73
2022/08/24 01:07:39;;;;;;;4.03;3.33;;;21.70;99.90;;;;;;2581276;23;20010;-73
2022/08/24 01:08:40;;;;;;;5.47;3.60;;;21.70;99.90;;;;;;2595452;22;20014;-73
2022/08/24 01:09:41;;;;;;;7.95;3.70;;;21.70;99.90;;;;;;2595091;22;20125;-73
2022/08/24 01:10:48;;;;;;;3.63;3.30;;;21.70;99.90;;;;;;2595365;22;20430;-73
2022/08/24 01:11:49;;;;;;;5.88;3.33;;;21.70;99.90;;;;;;2581544;23;20085;-73
2022/08/24 01:12:54;;;;;;;6.85;3.10;;;21.60;99.90;;;;;;2581078;23;20058;-73
2022/08/24 01:13:55;;;;;;;5.53;3.80;;;21.70;99.90;;;;;;2580244;23;20026;-73
2022/08/24 01:14:58;;;;;;;6.18;3.33;;;21.60;99.90;;;;;;2580741;22;20005;-73
2022/08/24 01:16:02;;;;;;;7.18;4.05;;;21.60;99.90;;;;;;2593660;22;20004;-73
2022/08/24 01:19:53;;;;;;;5.43;3.30;;;21.60;99.90;;;;;;2594406;22;20008;-73
2022/08/24 01:21:21;;;;;;;6.90;3.95;;;21.50;99.90;;;;;;2594910;22;20000;-73
2022/08/24 01:22:33;;;;;;;6.32;4.07;;;21.50;99.90;;;;;;2578263;22;20007;-73
2022/08/24 01:23:34;;;;;;;7.93;3.90;;;21.50;99.90;;;;;;2594381;22;20327;-73
2022/08/24 01:24:35;;;;;;;9.65;4.22;;;21.50;99.90;;;;;;2594125;22;20018;-73
2022/08/24 01:25:37;;;;;;;6.05;3.90;;;21.50;99.90;;;;;;2594516;22;20403;-73
2022/08/24 01:26:42;;;;;;;6.15;3.65;;;21.50;99.90;;;;;;2581189;23;20023;-73
2022/08/24 01:27:43;;;;;;;5.93;4.10;;;21.50;99.90;;;;;;2582203;22;20474;-73
2022/08/24 01:28:47;;;;;;;5.32;3.60;;;21.50;99.90;;;;;;2594716;22;20467;-72
2022/08/24 01:29:49;;;;;;;5.30;3.67;;;21.40;99.90;;;;;;2594974;22;19996;-73
2022/08/24 01:30:50;;;;;;;5.28;4.00;;;21.50;99.90;;;;;;2594860;22;20000;-73
2022/08/24 01:31:51;;;;;;;6.88;3.92;;;21.50;99.90;;;;;;2594468;22;20067;-73
2022/08/24 01:32:57;;;;;;;4.85;3.40;;;21.40;99.90;;;;;;2595197;22;20301;-73
2022/08/24 01:33:58;;;;;;;5.72;4.10;;;21.40;99.90;;;;;;2594673;22;20079;-73
2022/08/24 01:34:58;;;;;;;5.30;3.97;;;21.40;99.90;;;;;;2594565;22;19996;-73
2022/08/24 01:36:24;;;;;;;7.60;4.22;;;21.40;99.90;;;;;;2594670;22;20475;-73
2022/08/24 01:37:25;;;;;;;5.38;3.83;;;21.40;99.90;;;;;;2593529;22;20071;-73
2022/08/24 01:38:26;;;;;;;5.88;4.55;;;21.30;99.90;;;;;;2594700;22;20006;-73
2022/08/24 01:39:40;;;;;;;6.75;4.20;;;21.40;99.90;;;;;;2581636;23;20070;-73
2022/08/24 01:40:47;;;;;;;6.15;4.32;;;21.30;99.90;;;;;;2584011;22;20079;-73
2022/08/24 01:41:48;;;;;;;9.55;4.60;;;21.30;99.90;;;;;;2581507;23;20007;-73
2022/08/24 01:42:50;;;;;;;8.82;4.78;;;21.30;99.90;;;;;;2581707;23;19996;-73
2022/08/24 01:43:52;;;;;;;5.20;4.15;;;21.30;99.90;;;;;;2594787;22;20096;-73
2022/08/24 01:44:52;;;;;;;6.65;4.50;;;21.30;99.90;;;;;;2594877;22;20002;-73
2022/08/24 01:45:53;;;;;;;8.30;4.18;;;21.30;99.90;;;;;;2594716;22;20030;-73
2022/08/24 01:46:55;;;;;;;6.20;4.32;;;21.30;99.90;;;;;;2594593;22;19995;-73
2022/08/24 01:47:57;;;;;;;5.63;4.00;;;21.30;99.90;;;;;;2594837;22;20000;-73
2022/08/24 01:48:58;;;;;;;7.18;4.63;;;21.30;99.90;;;;;;2594826;22;20006;-73
2022/08/24 01:50:01;;;;;;;7.05;4.85;;;21.30;99.90;;;;;;2593170;22;20587;-73
2022/08/24 01:51:01;;;;;;;7.80;4.70;;;21.20;99.90;;;;;;2594500;22;19996;-73
2022/08/24 01:52:05;;;;;;;8.07;5.63;;;21.20;99.90;;;;;;2580822;23;20046;-73
2022/08/24 01:53:05;;;;;;;10.68;5.28;;;21.20;99.90;;;;;;2581680;22;20010;-73
2022/08/24 01:54:07;;;;;;;10.07;5.85;;;21.20;99.90;;;;;;2594163;22;20003;-73
2022/08/24 01:55:11;;;;;;;9.98;5.63;;;21.20;99.90;;;;;;2595249;22;20062;-73
2022/08/24 01:56:12;;;;;;;6.25;4.95;;;21.20;99.90;;;;;;2594224;22;20037;-73
2022/08/24 01:57:13;;;;;;;7.53;5.78;;;21.20;99.90;;;;;;2594653;22;20408;-73
2022/08/24 01:58:14;;;;;;;9.45;6.03;;;21.20;99.90;;;;;;2594753;22;20076;-73
2022/08/24 01:59:15;;;;;;;11.20;6.30;;;21.20;99.90;;;;;;2594516;22;20000;-73
2022/08/24 02:00:16;;;;;;;11.07;6.38;;;21.20;99.90;;;;;;2594914;22;20000;-73
2022/08/24 02:01:17;;;;;;;13.40;6.93;;;21.20;99.90;;;;;;2594700;22;20003;-73
2022/08/24 02:02:23;;;;;;;12.40;6.93;;;21.20;99.90;;;;;;2594471;22;20007;-73
2022/08/24 02:03:24;;;;;;;7.13;5.38;;;21.20;99.90;;;;;;2580974;23;20004;-73
2022/08/24 02:04:24;;;;;;;8.32;6.20;;;21.10;99.90;;;;;;2581085;23;20015;-73
2022/08/24 02:05:25;;;;;;;7.80;5.85;;;21.10;99.90;;;;;;2581558;23;20070;-73
2022/08/24 02:06:26;;;;;;;6.57;5.50;;;21.10;99.90;;;;;;2580733;23;20416;-73
2022/08/24 02:07:28;;;;;;;9.10;5.80;;;21.10;99.90;;;;;;2581037;23;20437;-73
2022/08/24 02:08:29;;;;;;;9.88;7.05;;;21.00;99.90;;;;;;2594187;22;20382;-73
2022/08/24 02:09:29;;;;;;;8.90;6.15;;;21.10;99.90;;;;;;2594172;22;20085;-73
2022/08/24 02:10:31;;;;;;;11.18;6.55;;;21.10;99.90;;;;;;2594107;22;20039;-73
2022/08/24 02:11:32;;;;;;;10.63;6.38;;;21.10;99.90;;;;;;2594492;22;20065;-73
2022/08/24 02:12:34;;;;;;;10.30;7.30;;;21.00;99.90;;;;;;2594089;22;20000;-73
2022/08/24 02:13:37;;;;;;;12.98;7.60;;;21.00;99.90;;;;;;2593634;22;19995;-73
2022/08/24 02:14:38;;;;;;;10.23;6.75;;;21.00;99.90;;;;;;2594286;22;19995;-73
2022/08/24 02:15:38;;;;;;;9.80;6.82;;;21.00;99.90;;;;;;2581135;23;20452;-73
2022/08/24 02:16:39;;;;;;;9.45;6.90;;;21.00;99.90;;;;;;2580844;22;20486;-73
2022/08/24 02:17:40;;;;;;;9.15;6.72;;;21.00;99.90;;;;;;2594203;22;20073;-73
2022/08/24 02:18:41;;;;;;;9.18;6.22;;;21.00;99.90;;;;;;2594678;22;20022;-73
2022/08/24 02:19:42;;;;;;;7.43;5.82;;;21.00;99.90;;;;;;2594378;22;20010;-73
2022/08/24 02:20:43;;;;;;;8.80;5.97;;;21.00;99.90;;;;;;2594360;22;20027;-73
2022/08/24 02:21:45;;;;;;;7.55;5.93;;;20.90;99.90;;;;;;2593730;22;20400;-73
2022/08/24 02:22:46;;;;;;;9.80;6.97;;;21.00;99.90;;;;;;2594985;22;19999;-73
2022/08/24 02:23:47;;;;;;;14.15;7.75;;;21.00;99.90;;;;;;2593909;22;19999;-73
2022/08/24 02:24:48;;;;;;;11.60;7.78;;;20.90;99.90;;;;;;2595042;22;20067;-73
2022/08/24 02:25:48;;;;;;;13.57;7.47;;;20.90;99.90;;;;;;2594576;22;19996;-73
2022/08/24 02:26:49;;;;;;;11.48;7.00;;;20.90;99.90;;;;;;2594346;22;20089;-73
2022/08/24 02:27:50;;;;;;;12.18;6.97;;;20.90;99.90;;;;;;2593978;22;20445;-73
2022/08/24 02:28:50;;;;;;;11.23;7.43;;;20.90;99.90;;;;;;2594701;22;20305;-73
2022/08/24 02:29:51;;;;;;;9.57;7.20;;;20.90;99.90;;;;;;2594318;22;20030;-73
2022/08/24 02:30:52;;;;;;;11.95;6.95;;;20.90;99.90;;;;;;2594215;22;20003;-73
2022/08/24 02:31:52;;;;;;;9.98;6.88;;;20.90;99.90;;;;;;2594506;22;20323;-73
2022/08/24 02:32:53;;;;;;;12.43;7.63;;;20.90;99.90;;;;;;2594934;22;20331;-73
2022/08/24 02:33:54;;;;;;;11.45;6.80;;;20.90;99.90;;;;;;2594358;22;20019;-73
2022/08/24 02:34:54;;;;;;;9.07;6.70;;;20.80;99.90;;;;;;2594615;22;20393;-73
2022/08/24 02:35:55;;;;;;;9.52;6.38;;;20.80;99.90;;;;;;2580900;23;20032;-73
2022/08/24 02:36:56;;;;;;;9.23;6.90;;;20.80;99.90;;;;;;2581153;23;20000;-73
2022/08/24 02:37:57;;;;;;;10.18;7.18;;;20.80;99.90;;;;;;2594110;22;20408;-73
2022/08/24 02:38:58;;;;;;;9.70;7.00;;;20.80;99.90;;;;;;2594072;22;20332;-73
2022/08/24 02:39:58;;;;;;;10.57;7.88;;;20.80;99.90;;;;;;2594947;22;20003;-73
2022/08/24 02:40:59;;;;;;;13.38;8.25;;;20.80;99.90;;;;;;2581147;23;20534;-73
2022/08/24 02:42:00;;;;;;;14.05;8.20;;;20.80;99.90;;;;;;2581251;22;20008;-73
2022/08/24 02:43:01;;;;;;;11.00;7.50;;;20.70;99.90;;;;;;2594513;22;19995;-73
2022/08/24 02:44:02;;;;;;;11.93;7.80;;;20.70;99.90;;;;;;2594385;22;20003;-73
2022/08/24 02:45:03;;;;;;;10.02;7.78;;;20.70;99.90;;;;;;2594529;22;20004;-73
2022/08/24 02:46:05;;;;;;;12.32;7.45;;;20.70;99.90;;;;;;2594892;22;19999;-73
2022/08/24 02:47:06;;;;;;;11.57;7.70;;;20.70;99.90;;;;;;2594437;22;20364;-73
2022/08/24 02:48:07;;;;;;;10.55;6.90;;;20.70;99.90;;;;;;2594882;22;20011;-73
2022/08/24 02:49:08;;;;;;;9.20;6.55;;;20.70;99.90;;;;;;2581073;23;20004;-73
2022/08/24 02:50:11;;;;;;;13.27;7.15;;;20.70;99.90;;;;;;2581310;23;20038;-73
2022/08/24 02:51:26;;;;;;;12.68;8.02;;;20.70;99.90;;;;;;2594841;22;20042;-73
2022/08/24 02:52:28;;;;;;;8.90;6.85;;;20.70;99.90;;;;;;2594105;22;20348;-73
2022/08/24 02:53:28;;;;;;;12.35;7.13;;;20.60;99.90;;;;;;2594411;22;20042;-73
2022/08/24 02:54:29;;;;;;;9.05;6.97;;;20.60;99.90;;;;;;2594651;22;20149;-73
2022/08/24 02:55:29;;;;;;;11.98;7.13;;;20.60;99.90;;;;;;2594127;22;20420;-73
2022/08/24 02:56:30;;;;;;;10.85;7.10;;;20.60;99.90;;;;;;2594416;22;20057;-73
2022/08/24 02:57:31;;;;;;;12.00;8.32;;;20.60;99.90;;;;;;2594993;22;19999;-73
2022/08/24 02:58:32;;;;;;;11.98;7.65;;;20.60;99.90;;;;;;2581131;23;20008;-73
2022/08/24 02:59:33;;;;;;;13.02;7.60;;;20.60;99.90;;;;;;2580670;22;20095;-73
2022/08/24 03:00:35;;;;;;;8.65;6.75;;;20.60;99.90;;;;;;2594889;22;20002;-73
2022/08/24 03:01:36;;;;;;;11.32;7.50;;;20.60;99.90;;;;;;2594440;22;20145;-73
2022/08/24 03:02:37;;;;;;;11.13;7.80;;;20.60;99.90;;;;;;2581092;23;20016;-73
2022/08/24 03:03:38;;;;;;;11.75;7.93;;;20.50;99.90;;;;;;2581014;22;20083;-73
2022/08/24 03:04:39;;;;;;;13.32;7.63;;;20.50;99.90;;;;;;2594113;22;20328;-73
2022/08/24 03:05:40;;;;;;;12.85;7.70;;;20.50;99.90;;;;;;2594671;22;20031;-73
2022/08/24 03:06:41;;;;;;;11.57;7.85;;;20.50;99.90;;;;;;2593786;22;20015;-73
2022/08/24 03:07:42;;;;;;;12.05;7.75;;;20.50;99.90;;;;;;2594286;22;20000;-73
2022/08/24 03:08:44;;;;;;;11.15;7.80;;;20.50;99.90;;;;;;2594503;22;20003;-73
2022/08/24 03:09:45;;;;;;;9.70;6.55;;;20.50;99.90;;;;;;2593620;22;20316;-73
2022/08/24 03:10:46;;;;;;;8.80;7.20;;;20.50;99.90;;;;;;2593502;22;19999;-73
2022/08/24 03:11:46;;;;;;;12.77;7.72;;;20.50;99.90;;;;;;2593833;22;20004;-73
2022/08/24 03:12:48;;;;;;;10.00;7.05;;;20.50;99.90;;;;;;2594377;22;20006;-73
2022/08/24 03:13:49;;;;;;;13.85;7.97;;;20.40;99.90;;;;;;2594255;22;20363;-73
2022/08/24 03:14:49;;;;;;;10.40;6.90;;;20.40;99.90;;;;;;2594892;22;20003;-73
2022/08/24 03:15:50;;;;;;;9.98;7.95;;;20.40;99.90;;;;;;2594302;22;20075;-73
2022/08/24 03:16:50;;;;;;;18.30;7.70;;;20.40;99.90;;;;;;2594119;22;20023;-72
2022/08/24 03:17:51;;;;;;;10.02;7.50;;;20.40;99.90;;;;;;2580781;23;20083;-73
2022/08/24 03:18:52;;;;;;;10.13;7.43;;;20.40;99.90;;;;;;2580939;23;20011;-73
2022/08/24 03:19:53;;;;;;;11.65;7.50;;;20.40;99.90;;;;;;2580831;23;20031;-73
2022/08/24 03:20:56;;;;;;;12.93;7.88;;;20.40;99.90;;;;;;2580879;23;20000;-73
2022/08/24 03:21:56;;;;;;;10.60;7.88;;;20.40;99.90;;;;;;2594674;22;20007;-73
2022/08/24 03:22:57;;;;;;;9.88;7.72;;;20.30;99.90;;;;;;2594608;22;20000;-73
2022/08/24 03:23:58;;;;;;;9.52;6.85;;;20.30;99.90;;;;;;2594529;22;20110;-73
2022/08/24 03:24:58;;;;;;;10.07;6.90;;;20.30;99.90;;;;;;2593652;22;19996;-73
2022/08/24 03:26:00;;;;;;;9.00;7.25;;;20.30;99.90;;;;;;2594793;22;20073;-73
2022/08/24 03:27:01;;;;;;;9.35;6.85;;;20.30;99.90;;;;;;2594557;22;20007;-73
2022/08/24 03:28:02;;;;;;;12.32;7.50;;;20.30;99.90;;;;;;2593896;22;19999;-73
2022/08/24 03:29:02;;;;;;;11.60;7.15;;;20.30;99.90;;;;;;2594700;22;20008;-73
2022/08/24 03:30:05;;;;;;;11.90;7.70;;;20.30;99.90;;;;;;2581427;23;20011;-73
2022/08/24 03:31:05;;;;;;;9.65;7.05;;;20.30;99.90;;;;;;2581060;22;20020;-73
2022/08/24 03:32:06;;;;;;;11.23;7.40;;;20.30;99.90;;;;;;2594416;22;19999;-73
2022/08/24 03:33:07;;;;;;;10.50;7.65;;;20.30;99.90;;;;;;2593730;22;20495;-73
2022/08/24 03:34:12;;;;;;;10.68;7.13;;;20.30;99.90;;;;;;2594950;22;20091;-73
2022/08/24 03:35:13;;;;;;;10.10;7.35;;;20.30;99.90;;;;;;2593760;22;20305;-73
2022/08/24 03:36:14;;;;;;;11.82;7.38;;;20.20;99.90;;;;;;2580516;23;20004;-73
2022/08/24 03:37:15;;;;;;;10.32;7.22;;;20.20;99.90;;;;;;2581058;23;20032;-73
2022/08/24 03:38:16;;;;;;;9.73;7.00;;;20.20;99.90;;;;;;2580790;23;20000;-73
2022/08/24 03:39:17;;;;;;;9.00;6.68;;;20.20;99.90;;;;;;2581229;22;20000;-73
2022/08/24 03:40:19;;;;;;;9.43;6.90;;;20.20;99.90;;;;;;2594129;22;20004;-73
2022/08/24 03:41:19;;;;;;;8.95;7.13;;;20.20;99.90;;;;;;2594881;22;20027;-73
2022/08/24 03:42:20;;;;;;;9.13;6.32;;;20.20;99.90;;;;;;2594733;22;20010;-73
2022/08/24 03:44:40;;;;;;;9.73;6.47;;;20.20;99.90;;;;;;2594377;22;20039;-73
2022/08/24 03:45:42;;;;;;;10.07;7.05;;;20.20;99.90;;;;;;2594171;22;20000;-73
2022/08/24 03:46:45;;;;;;;11.07;6.80;;;20.20;99.90;;;;;;2580060;23;20008;-73
2022/08/24 03:47:45;;;;;;;8.73;6.82;;;20.10;99.90;;;;;;2567969;23;20004;-73
2022/08/24 03:48:47;;;;;;;9.40;6.65;;;20.10;99.90;;;;;;2581007;23;20039;-73
2022/08/24 03:49:48;;;;;;;12.80;7.03;;;20.10;99.90;;;;;;2594405;22;20006;-73
2022/08/24 03:50:49;;;;;;;10.30;6.55;;;20.10;99.90;;;;;;2594304;22;19996;-73
2022/08/24 03:51:50;;;;;;;11.50;7.05;;;20.10;99.90;;;;;;2593660;22;20085;-73
2022/08/24 03:52:52;;;;;;;8.07;6.13;;;20.10;99.90;;;;;;2594899;22;20000;-73
2022/08/24 03:53:55;;;;;;;8.73;6.18;;;20.10;99.90;;;;;;2594992;22;20072;-73
2022/08/24 03:54:55;;;;;;;9.52;6.47;;;20.10;99.90;;;;;;2581436;23;20025;-73
2022/08/24 03:55:56;;;;;;;8.52;5.78;;;20.10;99.90;;;;;;2581832;23;20006;-73
2022/08/24 03:56:57;;;;;;;10.07;6.35;;;20.10;99.90;;;;;;2595458;22;20003;-73
2022/08/24 03:57:58;;;;;;;9.35;6.50;;;20.00;99.90;;;;;;2595342;22;20023;-73
2022/08/24 03:58:59;;;;;;;9.93;6.53;;;20.10;99.90;;;;;;2595575;22;20000;-73
2022/08/24 04:00:01;;;;;;;8.48;6.03;;;20.00;99.90;;;;;;2595324;22;20000;-73
2022/08/24 04:01:03;;;;;;;10.57;6.45;;;20.00;99.90;;;;;;2581832;23;20016;-73
2022/08/24 04:02:04;;;;;;;10.45;6.00;;;20.00;99.90;;;;;;2582267;22;20007;-73
2022/08/24 04:03:04;;;;;;;9.70;6.35;;;20.00;99.90;;;;;;2581285;23;20000;-73
2022/08/24 04:04:05;;;;;;;10.57;6.32;;;20.00;99.90;;;;;;2582328;23;20316;-73
2022/08/24 04:05:06;;;;;;;8.30;6.07;;;20.00;99.90;;;;;;2595688;22;20011;-73
2022/08/24 04:06:08;;;;;;;8.68;6.03;;;20.00;99.90;;;;;;2595146;22;20050;-73
2022/08/24 04:07:09;;;;;;;8.68;5.93;;;20.00;99.90;;;;;;2595096;22;20000;-73
2022/08/24 04:08:09;;;;;;;6.90;5.50;;;20.00;99.90;;;;;;2594788;22;20010;-73
2022/08/24 04:09:10;;;;;;;10.50;6.07;;;20.00;99.90;;;;;;2595100;22;20004;-73
2022/08/24 04:10:13;;;;;;;9.10;6.53;;;20.00;99.90;;;;;;2581847;23;20088;-73
2022/08/24 04:11:20;;;;;;;8.45;6.20;;;20.00;99.90;;;;;;2581326;23;20012;-73
2022/08/24 04:12:21;;;;;;;8.55;5.50;;;20.00;99.90;;;;;;2583215;22;20000;-73
2022/08/24 04:13:23;;;;;;;9.35;6.05;;;20.00;99.90;;;;;;2581707;23;20000;-73
2022/08/24 04:14:24;;;;;;;7.70;5.78;;;19.90;99.90;;;;;;2581888;22;20004;-73
2022/08/24 04:15:26;;;;;;;8.57;6.18;;;19.90;99.90;;;;;;2595635;22;20000;-73
2022/08/24 04:16:28;;;;;;;9.43;6.15;;;19.90;99.90;;;;;;2594682;22;20010;-73
2022/08/24 04:17:29;;;;;;;10.13;5.88;;;19.90;99.90;;;;;;2581677;23;20050;-73
2022/08/24 04:18:29;;;;;;;8.23;6.18;;;19.90;99.90;;;;;;2581771;23;20039;-73
2022/08/24 04:19:30;;;;;;;7.72;5.68;;;19.90;99.90;;;;;;2595355;22;20014;-73
2022/08/24 04:20:35;;;;;;;7.97;5.72;;;19.90;99.90;;;;;;2595505;22;20000;-73
2022/08/24 04:21:36;;;;;;;8.40;6.13;;;19.90;99.90;;;;;;2595531;22;20000;-73
2022/08/24 04:22:37;;;;;;;7.25;5.60;;;19.90;99.90;;;;;;2595542;22;20093;-73
2022/08/24 04:23:37;;;;;;;8.40;5.38;;;19.90;99.90;;;;;;2594359;22;19999;-73
2022/08/24 04:24:38;;;;;;;8.23;6.10;;;19.80;99.90;;;;;;2595356;22;20075;-73
2022/08/24 04:25:47;;;;;;;8.30;5.80;;;19.80;99.90;;;;;;2595238;22;20434;-73
2022/08/24 04:26:48;;;;;;;7.95;5.80;;;19.80;99.90;;;;;;2595398;22;20055;-73
2022/08/24 04:27:48;;;;;;;7.70;5.38;;;19.80;99.90;;;;;;2595218;22;20089;-73
2022/08/24 04:28:50;;;;;;;9.02;5.70;;;19.80;99.90;;;;;;2595146;22;20010;-73
2022/08/24 04:29:51;;;;;;;8.45;6.05;;;19.80;99.90;;;;;;2595498;22;20037;-73
2022/08/24 04:30:52;;;;;;;8.40;5.88;;;19.80;99.90;;;;;;2595240;22;20019;-73
2022/08/24 04:31:52;;;;;;;8.45;5.57;;;19.80;99.90;;;;;;2595057;22;20004;-73
2022/08/24 04:32:53;;;;;;;9.13;5.80;;;19.80;99.90;;;;;;2595446;22;20073;-73
2022/08/24 04:33:54;;;;;;;8.00;5.65;;;19.80;99.90;;;;;;2594666;22;19999;-73
2022/08/24 04:34:55;;;;;;;6.80;5.78;;;19.70;99.90;;;;;;2595272;22;19996;-73
2022/08/24 04:35:55;;;;;;;6.07;5.28;;;19.80;99.90;;;;;;2595044;22;20004;-73
2022/08/24 04:36:56;;;;;;;6.50;4.97;;;19.80;99.90;;;;;;2595534;22;19995;-73
2022/08/24 04:37:56;;;;;;;6.55;5.00;;;19.70;99.90;;;;;;2595328;22;20083;-73
2022/08/24 04:38:57;;;;;;;8.48;5.70;;;19.70;99.90;;;;;;2594845;22;20578;-73
2022/08/24 04:39:57;;;;;;;6.93;5.32;;;19.80;99.90;;;;;;2595515;22;20007;-73
2022/08/24 04:40:58;;;;;;;7.70;5.85;;;19.70;99.90;;;;;;2581951;23;19996;-73
2022/08/24 04:41:58;;;;;;;8.18;5.47;;;19.70;99.90;;;;;;2581875;23;20023;-73
2022/08/24 04:43:00;;;;;;;7.90;6.20;;;19.70;99.90;;;;;;2594334;22;20093;-73
2022/08/24 04:44:01;;;;;;;8.63;5.38;;;19.70;99.90;;;;;;2595426;22;20011;-73
2022/08/24 04:45:02;;;;;;;5.88;5.22;;;19.70;99.90;;;;;;2595519;22;20031;-73
2022/08/24 04:46:05;;;;;;;8.30;5.15;;;19.70;99.90;;;;;;2595209;22;20114;-73
2022/08/24 04:47:07;;;;;;;8.50;5.75;;;19.70;99.90;;;;;;2595025;22;20039;-73
2022/08/24 04:48:08;;;;;;;6.47;4.97;;;19.70;99.90;;;;;;2595399;22;20375;-73
2022/08/24 04:49:09;;;;;;;9.45;5.40;;;19.70;99.90;;;;;;2595351;22;19999;-73
2022/08/24 04:50:09;;;;;;;7.70;5.15;;;19.70;99.90;;;;;;2581612;23;20004;-73
2022/08/24 04:51:12;;;;;;;6.55;4.90;;;19.70;99.90;;;;;;2581651;23;20031;-73
2022/08/24 04:52:13;;;;;;;8.43;4.88;;;19.70;99.90;;;;;;2595125;22;20003;-73
2022/08/24 04:53:14;;;;;;;8.57;5.47;;;19.70;99.90;;;;;;2594742;22;20000;-73
2022/08/24 04:54:15;;;;;;;7.78;5.45;;;19.70;99.90;;;;;;2595187;22;19999;-73
2022/08/24 04:55:16;;;;;;;8.50;5.80;;;19.70;99.90;;;;;;2595164;22;20030;-73
2022/08/24 04:56:22;;;;;;;6.93;5.47;;;19.70;99.90;;;;;;2595039;22;20480;-73
2022/08/24 04:57:23;;;;;;;8.50;5.55;;;19.70;99.90;;;;;;2595349;22;20030;-73
2022/08/24 04:58:24;;;;;;;7.63;5.18;;;19.70;99.90;;;;;;2595001;22;20011;-73
2022/08/24 04:59:25;;;;;;;7.63;5.72;;;19.70;99.90;;;;;;2595129;22;20004;-73
2022/08/24 05:00:25;;;;;;;7.32;5.47;;;19.70;99.90;;;;;;2595001;22;20007;-73
2022/08/24 05:01:28;;;;;;;8.45;4.88;;;19.70;99.90;;;;;;2595028;22;20010;-73
2022/08/24 05:02:29;;;;;;;5.95;5.28;;;19.70;99.90;;;;;;2595035;22;20083;-73
2022/08/24 05:03:29;;;;;;;8.60;4.82;;;19.60;99.90;;;;;;2594951;22;20019;-73
2022/08/24 05:04:30;;;;;;;7.38;4.93;;;19.70;99.90;;;;;;2594827;22;20038;-73
2022/08/24 05:05:31;;;;;;;6.43;5.07;;;19.70;99.90;;;;;;2595293;22;20003;-73
2022/08/24 05:06:32;;;;;;;10.05;4.80;;;19.70;99.90;;;;;;2594762;22;20004;-73
2022/08/24 05:07:33;;;;;;;8.25;4.88;;;19.70;99.90;;;;;;2595316;22;20483;-73
2022/08/24 05:08:34;;;;;;;9.07;5.03;;;19.70;99.90;;;;;;2595247;22;20309;-73
2022/08/24 05:09:34;;;;;;;6.40;4.95;;;19.70;99.90;;;;;;2595212;22;20004;-73
2022/08/24 05:10:37;;;;;;;8.50;5.03;;;19.70;99.90;;;;;;2595057;22;20054;-73
2022/08/24 05:11:41;;;;;;;6.65;4.47;;;19.70;99.90;;;;;;2594790;22;20004;-73
2022/08/24 05:12:43;;;;;;;6.40;4.70;;;19.70;99.90;;;;;;2595090;22;20328;-73
2022/08/24 05:13:44;;;;;;;6.32;4.30;;;19.70;99.90;;;;;;2595092;22;20050;-73
2022/08/24 05:14:45;;;;;;;5.53;4.82;;;19.70;99.90;;;;;;2594940;22;19992;-73
2022/08/24 05:15:47;;;;;;;11.35;4.80;;;19.70;99.90;;;;;;2594982;22;20002;-73
2022/08/24 05:16:47;;;;;;;9.35;5.70;;;19.70;99.90;;;;;;2594805;22;19992;-73
2022/08/24 05:17:49;;;;;;;10.10;5.05;;;19.70;99.90;;;;;;2580540;23;20001;-73
2022/08/24 05:18:49;;;;;;;6.07;4.90;;;19.70;99.90;;;;;;2580830;22;20003;-73
2022/08/24 05:19:50;;;;;;;5.38;4.38;;;19.70;99.90;;;;;;2589459;22;20003;-73
2022/08/24 05:20:50;;;;;;;8.52;4.82;;;19.70;99.90;;;;;;2592420;22;19996;-73
2022/08/24 05:21:51;;;;;;;4.78;4.07;;;19.70;99.90;;;;;;2594938;22;19995;-73
2022/08/24 05:22:53;;;;;;;8.07;4.82;;;19.70;99.90;;;;;;2593946;22;20126;-73
2022/08/24 05:23:53;;;;;;;6.45;4.25;;;19.70;99.90;;;;;;2594463;22;20075;-73
2022/08/24 05:24:54;;;;;;;7.65;4.80;;;19.70;99.90;;;;;;2581233;23;20005;-73